CFZKH CYQM-CYQM
Flight info
| Callsign | CFZKH |
|---|---|
| Flight time | 2h 17m |
| Altitude | 5000 |
| Route | CYYG A060 CYHZ A040 CYQM |
| Aircraft | PA44/L-VGD/C |
Departure
| Time | 2026-04-27 23:03 |
|---|---|
| Airport | Greater Moncton Roméo LeBlanc International Airport (CYQM) |
Arrival
| Time | 2026-04-28 01:20 |
|---|---|
| Airport | Greater Moncton Roméo LeBlanc International Airport (CYQM) |
| Time | Latitude | Longitude | Altitude | Speed | Heading |
|---|---|---|---|---|---|
| 2026-04-27 22:46 | 46.10531 | -64.67631 | 224 ft | 0 kts | 43° |
| 2026-04-27 22:52 | 46.10542 | -64.67643 | 224 ft | 6 kts | 264° |
| 2026-04-27 22:53 | 46.10536 | -64.67719 | 225 ft | 10 kts | 263° |
| 2026-04-27 22:53 | 46.10528 | -64.67827 | 225 ft | 12 kts | 266° |
| 2026-04-27 22:53 | 46.10524 | -64.67936 | 225 ft | 9 kts | 267° |
| 2026-04-27 22:53 | 46.10521 | -64.68021 | 225 ft | 7 kts | 266° |
| 2026-04-27 22:54 | 46.10517 | -64.68096 | 225 ft | 7 kts | 266° |
| 2026-04-27 22:54 | 46.10517 | -64.68113 | 225 ft | 0 kts | 278° |
| 2026-04-27 23:01 | 46.10517 | -64.68115 | 225 ft | 1 kts | 278° |
| 2026-04-27 23:01 | 46.10538 | -64.68190 | 225 ft | 15 kts | 298° |
| 2026-04-27 23:01 | 46.10598 | -64.68333 | 226 ft | 17 kts | 312° |
| 2026-04-27 23:01 | 46.10679 | -64.68447 | 225 ft | 16 kts | 334° |
| 2026-04-27 23:02 | 46.10716 | -64.68413 | 225 ft | 0 kts | 88° |
| 2026-04-27 23:02 | 46.10724 | -64.68183 | 225 ft | 55 kts | 87° |
| 2026-04-27 23:02 | 46.10727 | -64.67417 | 307 ft | 90 kts | 88° |
| 2026-04-27 23:02 | 46.10694 | -64.66482 | 748 ft | 95 kts | 89° |
| 2026-04-27 23:03 | 46.10651 | -64.65524 | 1238 ft | 99 kts | 89° |
| 2026-04-27 23:03 | 46.10639 | -64.64557 | 1738 ft | 94 kts | 87° |
| 2026-04-27 23:03 | 46.10616 | -64.63598 | 2086 ft | 97 kts | 88° |
| 2026-04-27 23:03 | 46.10580 | -64.62612 | 2495 ft | 100 kts | 89° |
| 2026-04-27 23:04 | 46.10532 | -64.61593 | 2781 ft | 102 kts | 82° |
| 2026-04-27 23:04 | 46.10646 | -64.60555 | 3163 ft | 105 kts | 70° |
| 2026-04-27 23:04 | 46.10794 | -64.59525 | 3475 ft | 107 kts | 72° |
| 2026-04-27 23:04 | 46.10928 | -64.58427 | 3745 ft | 115 kts | 74° |
| 2026-04-27 23:05 | 46.11066 | -64.57330 | 4238 ft | 107 kts | 70° |
| 2026-04-27 23:05 | 46.11203 | -64.56249 | 4490 ft | 113 kts | 71° |
| 2026-04-27 23:05 | 46.11342 | -64.55131 | 4816 ft | 111 kts | 70° |
| 2026-04-27 23:05 | 46.11485 | -64.54025 | 5014 ft | 121 kts | 70° |
| 2026-04-27 23:06 | 46.11671 | -64.52749 | 5018 ft | 137 kts | 69° |
| 2026-04-27 23:06 | 46.11873 | -64.51350 | 5010 ft | 147 kts | 73° |
| 2026-04-27 23:06 | 46.12050 | -64.49879 | 5019 ft | 151 kts | 72° |
| 2026-04-27 23:06 | 46.12241 | -64.48370 | 5021 ft | 154 kts | 72° |
| 2026-04-27 23:07 | 46.12436 | -64.46844 | 5019 ft | 155 kts | 72° |
| 2026-04-27 23:07 | 46.12632 | -64.45312 | 5016 ft | 155 kts | 72° |
| 2026-04-27 23:07 | 46.12832 | -64.43782 | 5015 ft | 155 kts | 72° |
| 2026-04-27 23:07 | 46.13045 | -64.42234 | 5049 ft | 160 kts | 72° |
| 2026-04-27 23:08 | 46.13249 | -64.40665 | 5034 ft | 159 kts | 72° |
| 2026-04-27 23:08 | 46.13451 | -64.39078 | 5043 ft | 167 kts | 73° |
| 2026-04-27 23:08 | 46.13665 | -64.37414 | 5023 ft | 166 kts | 73° |
| 2026-04-27 23:08 | 46.13863 | -64.35799 | 5047 ft | 162 kts | 72° |
| 2026-04-27 23:09 | 46.14076 | -64.34214 | 5033 ft | 161 kts | 72° |
| 2026-04-27 23:09 | 46.14275 | -64.32646 | 5046 ft | 158 kts | 72° |
| 2026-04-27 23:09 | 46.14470 | -64.31093 | 5032 ft | 156 kts | 73° |
| 2026-04-27 23:09 | 46.14663 | -64.29561 | 5031 ft | 155 kts | 72° |
| 2026-04-27 23:10 | 46.14882 | -64.28029 | 5043 ft | 158 kts | 73° |
| 2026-04-27 23:10 | 46.15058 | -64.26465 | 5050 ft | 158 kts | 73° |
| 2026-04-27 23:10 | 46.15267 | -64.24905 | 5038 ft | 161 kts | 71° |
| 2026-04-27 23:10 | 46.15476 | -64.23279 | 5030 ft | 166 kts | 72° |
| 2026-04-27 23:11 | 46.15669 | -64.21660 | 5022 ft | 162 kts | 73° |
| 2026-04-27 23:11 | 46.15864 | -64.20095 | 5048 ft | 160 kts | 73° |
| 2026-04-27 23:11 | 46.16061 | -64.18535 | 5058 ft | 156 kts | 70° |
| 2026-04-27 23:11 | 46.16285 | -64.16958 | 5018 ft | 164 kts | 72° |
| 2026-04-27 23:12 | 46.16472 | -64.15365 | 5068 ft | 160 kts | 72° |
| 2026-04-27 23:12 | 46.16687 | -64.13744 | 5050 ft | 164 kts | 73° |
| 2026-04-27 23:12 | 46.16883 | -64.12081 | 5015 ft | 169 kts | 72° |
| 2026-04-27 23:12 | 46.17095 | -64.10453 | 5042 ft | 162 kts | 72° |
| 2026-04-27 23:13 | 46.17291 | -64.08852 | 5035 ft | 166 kts | 72° |
| 2026-04-27 23:13 | 46.17491 | -64.07245 | 5033 ft | 160 kts | 73° |
| 2026-04-27 23:13 | 46.17687 | -64.05683 | 5031 ft | 157 kts | 72° |
| 2026-04-27 23:13 | 46.17885 | -64.04137 | 5019 ft | 159 kts | 72° |
| 2026-04-27 23:14 | 46.18082 | -64.02563 | 5029 ft | 161 kts | 74° |
| 2026-04-27 23:14 | 46.18280 | -64.00967 | 5017 ft | 160 kts | 72° |
| 2026-04-27 23:14 | 46.18473 | -63.99419 | 5021 ft | 157 kts | 73° |
| 2026-04-27 23:14 | 46.18666 | -63.97876 | 5017 ft | 155 kts | 72° |
| 2026-04-27 23:15 | 46.18858 | -63.96346 | 5012 ft | 155 kts | 73° |
| 2026-04-27 23:15 | 46.19047 | -63.94820 | 5016 ft | 154 kts | 72° |
| 2026-04-27 23:15 | 46.19237 | -63.93298 | 5022 ft | 154 kts | 72° |
| 2026-04-27 23:15 | 46.19426 | -63.91778 | 5017 ft | 154 kts | 72° |
| 2026-04-27 23:16 | 46.19614 | -63.90261 | 5022 ft | 154 kts | 72° |
| 2026-04-27 23:16 | 46.19803 | -63.88744 | 5020 ft | 154 kts | 73° |
| 2026-04-27 23:16 | 46.19991 | -63.87226 | 5022 ft | 154 kts | 72° |
| 2026-04-27 23:16 | 46.20178 | -63.85709 | 5022 ft | 154 kts | 73° |
| 2026-04-27 23:17 | 46.20366 | -63.84190 | 5020 ft | 154 kts | 73° |
| 2026-04-27 23:17 | 46.20554 | -63.82671 | 5022 ft | 154 kts | 73° |
| 2026-04-27 23:17 | 46.20741 | -63.81148 | 5021 ft | 154 kts | 73° |
| 2026-04-27 23:17 | 46.20929 | -63.79628 | 5022 ft | 154 kts | 73° |
| 2026-04-27 23:18 | 46.21116 | -63.78106 | 5021 ft | 154 kts | 73° |
| 2026-04-27 23:18 | 46.21303 | -63.76580 | 5023 ft | 154 kts | 73° |
| 2026-04-27 23:18 | 46.21491 | -63.75055 | 5025 ft | 154 kts | 73° |
| 2026-04-27 23:18 | 46.21677 | -63.73533 | 5024 ft | 154 kts | 73° |
| 2026-04-27 23:19 | 46.21863 | -63.72009 | 5025 ft | 154 kts | 73° |
| 2026-04-27 23:19 | 46.22050 | -63.70487 | 5027 ft | 154 kts | 73° |
| 2026-04-27 23:19 | 46.22236 | -63.68962 | 5031 ft | 154 kts | 73° |
| 2026-04-27 23:19 | 46.22422 | -63.67437 | 5028 ft | 154 kts | 73° |
| 2026-04-27 23:20 | 46.22608 | -63.65913 | 5025 ft | 154 kts | 73° |
| 2026-04-27 23:20 | 46.22797 | -63.64382 | 5031 ft | 158 kts | 73° |
| 2026-04-27 23:20 | 46.22997 | -63.62825 | 5025 ft | 159 kts | 74° |
| 2026-04-27 23:20 | 46.23176 | -63.61258 | 5026 ft | 156 kts | 73° |
| 2026-04-27 23:21 | 46.23361 | -63.59706 | 5037 ft | 159 kts | 74° |
| 2026-04-27 23:21 | 46.23547 | -63.58129 | 5034 ft | 156 kts | 74° |
| 2026-04-27 23:21 | 46.23742 | -63.56586 | 5026 ft | 157 kts | 73° |
| 2026-04-27 23:21 | 46.23928 | -63.55049 | 5029 ft | 157 kts | 74° |
| 2026-04-27 23:22 | 46.24116 | -63.53484 | 5037 ft | 159 kts | 73° |
| 2026-04-27 23:22 | 46.24306 | -63.51911 | 5038 ft | 160 kts | 74° |
| 2026-04-27 23:22 | 46.24494 | -63.50322 | 5028 ft | 160 kts | 74° |
| 2026-04-27 23:22 | 46.24686 | -63.48740 | 4910 ft | 160 kts | 74° |
| 2026-04-27 23:23 | 46.24879 | -63.47158 | 4781 ft | 161 kts | 74° |
| 2026-04-27 23:23 | 46.25069 | -63.45570 | 4629 ft | 159 kts | 74° |
| 2026-04-27 23:23 | 46.25258 | -63.44016 | 4512 ft | 156 kts | 75° |
| 2026-04-27 23:23 | 46.25438 | -63.42433 | 4404 ft | 163 kts | 72° |
| 2026-04-27 23:24 | 46.25649 | -63.40788 | 4246 ft | 168 kts | 75° |
| 2026-04-27 23:24 | 46.25834 | -63.39147 | 4122 ft | 165 kts | 73° |
| 2026-04-27 23:24 | 46.26018 | -63.37564 | 3980 ft | 153 kts | 77° |
| 2026-04-27 23:24 | 46.26214 | -63.36114 | 3820 ft | 147 kts | 68° |
| 2026-04-27 23:25 | 46.26453 | -63.34658 | 3620 ft | 150 kts | 73° |
| 2026-04-27 23:25 | 46.26630 | -63.33159 | 3467 ft | 154 kts | 75° |
| 2026-04-27 23:25 | 46.26818 | -63.31651 | 3284 ft | 150 kts | 72° |
| 2026-04-27 23:25 | 46.27009 | -63.30223 | 3111 ft | 139 kts | 73° |
| 2026-04-27 23:26 | 46.27180 | -63.28943 | 2853 ft | 117 kts | 71° |
| 2026-04-27 23:26 | 46.27335 | -63.27865 | 2602 ft | 100 kts | 75° |
| 2026-04-27 23:26 | 46.27473 | -63.26914 | 2413 ft | 95 kts | 70° |
| 2026-04-27 23:26 | 46.27598 | -63.25937 | 2219 ft | 100 kts | 73° |
| 2026-04-27 23:27 | 46.27745 | -63.24987 | 2034 ft | 95 kts | 74° |
| 2026-04-27 23:27 | 46.27872 | -63.24010 | 1843 ft | 102 kts | 77° |
| 2026-04-27 23:27 | 46.28005 | -63.23028 | 1719 ft | 96 kts | 75° |
| 2026-04-27 23:27 | 46.28142 | -63.22095 | 1552 ft | 95 kts | 77° |
| 2026-04-27 23:28 | 46.28261 | -63.21195 | 1432 ft | 89 kts | 77° |
| 2026-04-27 23:28 | 46.28382 | -63.20358 | 1323 ft | 85 kts | 78° |
| 2026-04-27 23:28 | 46.28491 | -63.19505 | 1205 ft | 87 kts | 76° |
| 2026-04-27 23:28 | 46.28617 | -63.18601 | 1058 ft | 96 kts | 78° |
| 2026-04-27 23:29 | 46.28741 | -63.17651 | 878 ft | 94 kts | 79° |
| 2026-04-27 23:29 | 46.28869 | -63.16735 | 740 ft | 93 kts | 80° |
| 2026-04-27 23:29 | 46.28991 | -63.15823 | 602 ft | 92 kts | 81° |
| 2026-04-27 23:29 | 46.29110 | -63.14909 | 459 ft | 94 kts | 81° |
| 2026-04-27 23:30 | 46.29247 | -63.13980 | 531 ft | 95 kts | 82° |
| 2026-04-27 23:30 | 46.29362 | -63.13041 | 1054 ft | 94 kts | 82° |
| 2026-04-27 23:30 | 46.29468 | -63.12109 | 1545 ft | 92 kts | 80° |
| 2026-04-27 23:30 | 46.29593 | -63.11190 | 1976 ft | 95 kts | 77° |
| 2026-04-27 23:31 | 46.29725 | -63.10250 | 2500 ft | 96 kts | 75° |
| 2026-04-27 23:31 | 46.29820 | -63.09283 | 2961 ft | 102 kts | 81° |
| 2026-04-27 23:31 | 46.29557 | -63.08277 | 3362 ft | 112 kts | 126° |
| 2026-04-27 23:31 | 46.28877 | -63.07665 | 3610 ft | 118 kts | 165° |
| 2026-04-27 23:32 | 46.28065 | -63.07626 | 4205 ft | 115 kts | 191° |
| 2026-04-27 23:32 | 46.27261 | -63.07768 | 4944 ft | 118 kts | 189° |
| 2026-04-27 23:32 | 46.26463 | -63.07939 | 5369 ft | 117 kts | 193° |
| 2026-04-27 23:32 | 46.25653 | -63.08215 | 5653 ft | 118 kts | 198° |
| 2026-04-27 23:33 | 46.24885 | -63.08511 | 5981 ft | 117 kts | 198° |
| 2026-04-27 23:33 | 46.24020 | -63.08881 | 6072 ft | 143 kts | 201° |
| 2026-04-27 23:33 | 46.22991 | -63.09323 | 6098 ft | 166 kts | 199° |
| 2026-04-27 23:33 | 46.21828 | -63.09773 | 6055 ft | 178 kts | 196° |
| 2026-04-27 23:34 | 46.20619 | -63.10124 | 6063 ft | 174 kts | 191° |
| 2026-04-27 23:34 | 46.19421 | -63.10419 | 6084 ft | 178 kts | 190° |
| 2026-04-27 23:34 | 46.18205 | -63.10746 | 6022 ft | 175 kts | 194° |
| 2026-04-27 23:34 | 46.17033 | -63.11124 | 6019 ft | 171 kts | 194° |
| 2026-04-27 23:35 | 46.15879 | -63.11495 | 6022 ft | 169 kts | 194° |
| 2026-04-27 23:35 | 46.14735 | -63.11859 | 6021 ft | 168 kts | 194° |
| 2026-04-27 23:35 | 46.13594 | -63.12220 | 6023 ft | 168 kts | 194° |
| 2026-04-27 23:35 | 46.12456 | -63.12579 | 6019 ft | 167 kts | 194° |
| 2026-04-27 23:36 | 46.11319 | -63.12940 | 6013 ft | 167 kts | 194° |
| 2026-04-27 23:36 | 46.10183 | -63.13297 | 6018 ft | 167 kts | 194° |
| 2026-04-27 23:36 | 46.09046 | -63.13656 | 6020 ft | 167 kts | 194° |
| 2026-04-27 23:36 | 46.07910 | -63.14014 | 6020 ft | 167 kts | 194° |
| 2026-04-27 23:37 | 46.06772 | -63.14373 | 6015 ft | 167 kts | 194° |
| 2026-04-27 23:37 | 46.05638 | -63.14731 | 6017 ft | 167 kts | 194° |
| 2026-04-27 23:37 | 46.04501 | -63.15088 | 6021 ft | 167 kts | 194° |
| 2026-04-27 23:37 | 46.03363 | -63.15448 | 6016 ft | 167 kts | 194° |
| 2026-04-27 23:38 | 46.02610 | -63.15684 | 6018 ft | 167 kts | 194° |
| 2026-04-27 23:38 | 46.01470 | -63.16043 | 6018 ft | 167 kts | 194° |
| 2026-04-27 23:38 | 46.00328 | -63.16402 | 6017 ft | 168 kts | 194° |
| 2026-04-27 23:38 | 45.98820 | -63.16876 | 6016 ft | 168 kts | 194° |
| 2026-04-27 23:39 | 45.98051 | -63.17118 | 6017 ft | 168 kts | 194° |
| 2026-04-27 23:39 | 45.96912 | -63.17475 | 6016 ft | 168 kts | 194° |
| 2026-04-27 23:39 | 45.95772 | -63.17834 | 6017 ft | 168 kts | 194° |
| 2026-04-27 23:39 | 45.94645 | -63.18188 | 6018 ft | 168 kts | 194° |
| 2026-04-27 23:40 | 45.93504 | -63.18545 | 6015 ft | 168 kts | 194° |
| 2026-04-27 23:40 | 45.92365 | -63.18903 | 6013 ft | 168 kts | 194° |
| 2026-04-27 23:40 | 45.91224 | -63.19260 | 6013 ft | 168 kts | 194° |
| 2026-04-27 23:40 | 45.90083 | -63.19617 | 6010 ft | 168 kts | 194° |
| 2026-04-27 23:41 | 45.88942 | -63.19975 | 6016 ft | 168 kts | 194° |
| 2026-04-27 23:41 | 45.87799 | -63.20333 | 6016 ft | 168 kts | 194° |
| 2026-04-27 23:41 | 45.86655 | -63.20691 | 6014 ft | 168 kts | 194° |
| 2026-04-27 23:41 | 45.85511 | -63.21049 | 6017 ft | 168 kts | 194° |
| 2026-04-27 23:42 | 45.84366 | -63.21407 | 6013 ft | 168 kts | 194° |
| 2026-04-27 23:42 | 45.83218 | -63.21766 | 6013 ft | 168 kts | 194° |
| 2026-04-27 23:42 | 45.82087 | -63.22120 | 6013 ft | 168 kts | 194° |
| 2026-04-27 23:42 | 45.80942 | -63.22477 | 6014 ft | 168 kts | 194° |
| 2026-04-27 23:43 | 45.79797 | -63.22834 | 6010 ft | 168 kts | 194° |
| 2026-04-27 23:43 | 45.78654 | -63.23191 | 6009 ft | 168 kts | 194° |
| 2026-04-27 23:43 | 45.77511 | -63.23547 | 6010 ft | 168 kts | 194° |
| 2026-04-27 23:43 | 45.76371 | -63.23904 | 6010 ft | 168 kts | 194° |
| 2026-04-27 23:44 | 45.75229 | -63.24258 | 6003 ft | 168 kts | 194° |
| 2026-04-27 23:44 | 45.74089 | -63.24614 | 6004 ft | 168 kts | 194° |
| 2026-04-27 23:44 | 45.72946 | -63.24970 | 6006 ft | 169 kts | 194° |
| 2026-04-27 23:44 | 45.71795 | -63.25329 | 6011 ft | 170 kts | 193° |
| 2026-04-27 23:45 | 45.70637 | -63.25689 | 6002 ft | 169 kts | 193° |
| 2026-04-27 23:45 | 45.69486 | -63.26050 | 6008 ft | 169 kts | 194° |
| 2026-04-27 23:45 | 45.68324 | -63.26408 | 6007 ft | 171 kts | 193° |
| 2026-04-27 23:45 | 45.67160 | -63.26765 | 6007 ft | 171 kts | 193° |
| 2026-04-27 23:46 | 45.66000 | -63.27124 | 6012 ft | 170 kts | 193° |
| 2026-04-27 23:46 | 45.64839 | -63.27490 | 6013 ft | 171 kts | 194° |
| 2026-04-27 23:46 | 45.63672 | -63.27856 | 6003 ft | 171 kts | 193° |
| 2026-04-27 23:46 | 45.62520 | -63.28209 | 6015 ft | 169 kts | 193° |
| 2026-04-27 23:47 | 45.61355 | -63.28575 | 6010 ft | 172 kts | 193° |
| 2026-04-27 23:47 | 45.60177 | -63.28937 | 6010 ft | 173 kts | 194° |
| 2026-04-27 23:47 | 45.59001 | -63.29301 | 6000 ft | 173 kts | 193° |
| 2026-04-27 23:47 | 45.57841 | -63.29654 | 6017 ft | 170 kts | 194° |
| 2026-04-27 23:48 | 45.56679 | -63.30017 | 6006 ft | 170 kts | 193° |
| 2026-04-27 23:48 | 45.55529 | -63.30366 | 6015 ft | 172 kts | 193° |
| 2026-04-27 23:48 | 45.54361 | -63.30742 | 6004 ft | 170 kts | 194° |
| 2026-04-27 23:48 | 45.53211 | -63.31098 | 6006 ft | 168 kts | 193° |
| 2026-04-27 23:49 | 45.52060 | -63.31451 | 6001 ft | 168 kts | 193° |
| 2026-04-27 23:49 | 45.50911 | -63.31796 | 6004 ft | 169 kts | 193° |
| 2026-04-27 23:49 | 45.49824 | -63.32360 | 5996 ft | 165 kts | 218° |
| 2026-04-27 23:49 | 45.48947 | -63.33436 | 6003 ft | 166 kts | 224° |
| 2026-04-27 23:50 | 45.48075 | -63.34525 | 6020 ft | 169 kts | 224° |
| 2026-04-27 23:50 | 45.47177 | -63.35628 | 6005 ft | 169 kts | 224° |
| 2026-04-27 23:50 | 45.46294 | -63.36715 | 6020 ft | 168 kts | 223° |
| 2026-04-27 23:50 | 45.45401 | -63.37809 | 6014 ft | 171 kts | 223° |
| 2026-04-27 23:51 | 45.44506 | -63.38921 | 6002 ft | 170 kts | 223° |
| 2026-04-27 23:51 | 45.43625 | -63.40013 | 6001 ft | 166 kts | 223° |
| 2026-04-27 23:51 | 45.42761 | -63.41078 | 5999 ft | 164 kts | 223° |
| 2026-04-27 23:51 | 45.41898 | -63.42148 | 6006 ft | 166 kts | 223° |
| 2026-04-27 23:52 | 45.41034 | -63.43222 | 6005 ft | 167 kts | 223° |
| 2026-04-27 23:52 | 45.40150 | -63.44297 | 6002 ft | 166 kts | 223° |
| 2026-04-27 23:52 | 45.39276 | -63.45372 | 6000 ft | 165 kts | 223° |
| 2026-04-27 23:52 | 45.38402 | -63.46446 | 6012 ft | 168 kts | 223° |
| 2026-04-27 23:53 | 45.37518 | -63.47540 | 6000 ft | 167 kts | 223° |
| 2026-04-27 23:53 | 45.36642 | -63.48630 | 6002 ft | 167 kts | 223° |
| 2026-04-27 23:53 | 45.35774 | -63.49712 | 6000 ft | 165 kts | 224° |
| 2026-04-27 23:53 | 45.34913 | -63.50783 | 6001 ft | 164 kts | 224° |
| 2026-04-27 23:54 | 45.34055 | -63.51849 | 6008 ft | 163 kts | 223° |
| 2026-04-27 23:54 | 45.33197 | -63.52910 | 6007 ft | 164 kts | 223° |
| 2026-04-27 23:54 | 45.32335 | -63.53975 | 6005 ft | 164 kts | 224° |
| 2026-04-27 23:54 | 45.31475 | -63.55042 | 6013 ft | 164 kts | 223° |
| 2026-04-27 23:55 | 45.30604 | -63.56128 | 6005 ft | 167 kts | 221° |
| 2026-04-27 23:55 | 45.29534 | -63.56674 | 6005 ft | 166 kts | 185° |
| 2026-04-27 23:55 | 45.28380 | -63.56784 | 6010 ft | 166 kts | 184° |
| 2026-04-27 23:55 | 45.27240 | -63.56906 | 6013 ft | 167 kts | 184° |
| 2026-04-27 23:56 | 45.26071 | -63.57034 | 6006 ft | 168 kts | 184° |
| 2026-04-27 23:56 | 45.24918 | -63.57167 | 6008 ft | 165 kts | 185° |
| 2026-04-27 23:56 | 45.23775 | -63.57300 | 6019 ft | 165 kts | 185° |
| 2026-04-27 23:56 | 45.22612 | -63.57431 | 6014 ft | 168 kts | 185° |
| 2026-04-27 23:57 | 45.21446 | -63.57566 | 6012 ft | 168 kts | 185° |
| 2026-04-27 23:57 | 45.20290 | -63.57703 | 6013 ft | 166 kts | 184° |
| 2026-04-27 23:57 | 45.19139 | -63.57836 | 6005 ft | 166 kts | 184° |
| 2026-04-27 23:57 | 45.17969 | -63.57969 | 5883 ft | 170 kts | 184° |
| 2026-04-27 23:58 | 45.16789 | -63.58110 | 5752 ft | 170 kts | 184° |
| 2026-04-27 23:58 | 45.15593 | -63.58245 | 5613 ft | 174 kts | 184° |
| 2026-04-27 23:58 | 45.14390 | -63.58396 | 5523 ft | 173 kts | 185° |
| 2026-04-27 23:58 | 45.13180 | -63.58561 | 5366 ft | 172 kts | 184° |
| 2026-04-27 23:59 | 45.12014 | -63.58710 | 5238 ft | 169 kts | 185° |
| 2026-04-27 23:59 | 45.10829 | -63.58870 | 5124 ft | 172 kts | 184° |
| 2026-04-27 23:59 | 45.09659 | -63.59035 | 5001 ft | 169 kts | 185° |
| 2026-04-27 23:59 | 45.08500 | -63.59200 | 4865 ft | 166 kts | 184° |
| 2026-04-28 00:00 | 45.07356 | -63.59369 | 4756 ft | 167 kts | 185° |
| 2026-04-28 00:00 | 45.06213 | -63.59559 | 4610 ft | 164 kts | 184° |
| 2026-04-28 00:00 | 45.05074 | -63.59726 | 4512 ft | 162 kts | 185° |
| 2026-04-28 00:00 | 45.03951 | -63.59911 | 4235 ft | 157 kts | 184° |
| 2026-04-28 00:01 | 45.02922 | -63.60095 | 3999 ft | 141 kts | 183° |
| 2026-04-28 00:01 | 45.02013 | -63.60254 | 3651 ft | 128 kts | 186° |
| 2026-04-28 00:01 | 45.01125 | -63.60429 | 3397 ft | 130 kts | 183° |
| 2026-04-28 00:01 | 45.00220 | -63.60619 | 3074 ft | 129 kts | 183° |
| 2026-04-28 00:02 | 44.99404 | -63.60796 | 2837 ft | 116 kts | 186° |
| 2026-04-28 00:02 | 44.98621 | -63.60915 | 2552 ft | 107 kts | 173° |
| 2026-04-28 00:02 | 44.97884 | -63.60869 | 2285 ft | 106 kts | 176° |
| 2026-04-28 00:02 | 44.97168 | -63.60893 | 2077 ft | 97 kts | 176° |
| 2026-04-28 00:03 | 44.96507 | -63.60917 | 2118 ft | 101 kts | 177° |
| 2026-04-28 00:03 | 44.95792 | -63.60952 | 2012 ft | 94 kts | 176° |
| 2026-04-28 00:03 | 44.95178 | -63.60956 | 2059 ft | 88 kts | 177° |
| 2026-04-28 00:03 | 44.94553 | -63.60988 | 2057 ft | 92 kts | 176° |
| 2026-04-28 00:04 | 44.93979 | -63.60739 | 2042 ft | 90 kts | 126° |
| 2026-04-28 00:04 | 44.93197 | -63.59320 | 1838 ft | 93 kts | 127° |
| 2026-04-28 00:04 | 44.92814 | -63.58591 | 1713 ft | 92 kts | 127° |
| 2026-04-28 00:05 | 44.92438 | -63.57865 | 1576 ft | 91 kts | 126° |
| 2026-04-28 00:05 | 44.92064 | -63.57141 | 1454 ft | 91 kts | 127° |
| 2026-04-28 00:05 | 44.91684 | -63.56389 | 1283 ft | 100 kts | 126° |
| 2026-04-28 00:05 | 44.91305 | -63.55618 | 1186 ft | 95 kts | 127° |
| 2026-04-28 00:06 | 44.90917 | -63.54837 | 1027 ft | 96 kts | 128° |
| 2026-04-28 00:06 | 44.90542 | -63.54086 | 888 ft | 91 kts | 129° |
| 2026-04-28 00:06 | 44.90181 | -63.53364 | 766 ft | 89 kts | 129° |
| 2026-04-28 00:06 | 44.89825 | -63.52655 | 659 ft | 91 kts | 128° |
| 2026-04-28 00:07 | 44.89464 | -63.51905 | 859 ft | 94 kts | 128° |
| 2026-04-28 00:07 | 44.89077 | -63.51175 | 1435 ft | 89 kts | 129° |
| 2026-04-28 00:07 | 44.88709 | -63.50512 | 2003 ft | 85 kts | 129° |
| 2026-04-28 00:07 | 44.88314 | -63.49853 | 2532 ft | 90 kts | 129° |
| 2026-04-28 00:08 | 44.87891 | -63.49176 | 3130 ft | 104 kts | 129° |
| 2026-04-28 00:08 | 44.87328 | -63.48262 | 3011 ft | 132 kts | 127° |
| 2026-04-28 00:08 | 44.86780 | -63.47219 | 3019 ft | 133 kts | 112° |
| 2026-04-28 00:08 | 44.86922 | -63.45982 | 3008 ft | 137 kts | 53° |
| 2026-04-28 00:09 | 44.87722 | -63.45232 | 3016 ft | 139 kts | 33° |
| 2026-04-28 00:09 | 44.88554 | -63.44535 | 3032 ft | 140 kts | 35° |
| 2026-04-28 00:09 | 44.89395 | -63.43801 | 3040 ft | 147 kts | 35° |
| 2026-04-28 00:09 | 44.90275 | -63.43041 | 3049 ft | 147 kts | 34° |
| 2026-04-28 00:10 | 44.91200 | -63.42261 | 2995 ft | 153 kts | 33° |
| 2026-04-28 00:10 | 44.92091 | -63.41471 | 2980 ft | 151 kts | 34° |
| 2026-04-28 00:10 | 44.92988 | -63.40702 | 3014 ft | 153 kts | 34° |
| 2026-04-28 00:10 | 44.93871 | -63.39931 | 3003 ft | 145 kts | 35° |
| 2026-04-28 00:11 | 44.94737 | -63.39187 | 3015 ft | 144 kts | 35° |
| 2026-04-28 00:11 | 44.95609 | -63.38412 | 3004 ft | 152 kts | 34° |
| 2026-04-28 00:11 | 44.96508 | -63.37668 | 3043 ft | 151 kts | 31° |
| 2026-04-28 00:11 | 44.97553 | -63.37393 | 2995 ft | 153 kts | 355° |
| 2026-04-28 00:12 | 44.98473 | -63.38086 | 3007 ft | 152 kts | 317° |
| 2026-04-28 00:12 | 44.99003 | -63.39386 | 3004 ft | 158 kts | 291° |
| 2026-04-28 00:12 | 44.99377 | -63.40841 | 3017 ft | 162 kts | 291° |
| 2026-04-28 00:12 | 44.99783 | -63.42331 | 2997 ft | 162 kts | 291° |
| 2026-04-28 00:13 | 45.00183 | -63.43782 | 3017 ft | 157 kts | 292° |
| 2026-04-28 00:13 | 45.00582 | -63.45211 | 3008 ft | 153 kts | 291° |
| 2026-04-28 00:13 | 45.00968 | -63.46623 | 3008 ft | 157 kts | 291° |
| 2026-04-28 00:13 | 45.01366 | -63.48062 | 3016 ft | 157 kts | 292° |
| 2026-04-28 00:14 | 45.01766 | -63.49509 | 3009 ft | 156 kts | 292° |
| 2026-04-28 00:14 | 45.02158 | -63.50927 | 3019 ft | 154 kts | 292° |
| 2026-04-28 00:14 | 45.02547 | -63.52341 | 3015 ft | 155 kts | 291° |
| 2026-04-28 00:14 | 45.02937 | -63.53769 | 3015 ft | 157 kts | 292° |
| 2026-04-28 00:15 | 45.03339 | -63.55223 | 3006 ft | 158 kts | 291° |
| 2026-04-28 00:15 | 45.03727 | -63.56652 | 3008 ft | 154 kts | 292° |
| 2026-04-28 00:15 | 45.04125 | -63.58088 | 3005 ft | 161 kts | 292° |
| 2026-04-28 00:15 | 45.04515 | -63.59514 | 3006 ft | 151 kts | 292° |
| 2026-04-28 00:16 | 45.04898 | -63.60907 | 2977 ft | 154 kts | 292° |
| 2026-04-28 00:16 | 45.05281 | -63.62298 | 3012 ft | 154 kts | 291° |
| 2026-04-28 00:16 | 45.05549 | -63.63750 | 2996 ft | 150 kts | 270° |
| 2026-04-28 00:16 | 45.05211 | -63.65108 | 3012 ft | 149 kts | 228° |
| 2026-04-28 00:17 | 45.04385 | -63.66000 | 2999 ft | 148 kts | 207° |
| 2026-04-28 00:17 | 45.03499 | -63.66770 | 2977 ft | 154 kts | 210° |
| 2026-04-28 00:17 | 45.02624 | -63.67610 | 3005 ft | 155 kts | 213° |
| 2026-04-28 00:17 | 45.01760 | -63.68492 | 2999 ft | 149 kts | 213° |
| 2026-04-28 00:18 | 45.00921 | -63.69329 | 3009 ft | 151 kts | 210° |
| 2026-04-28 00:18 | 45.00038 | -63.70175 | 2991 ft | 152 kts | 204° |
| 2026-04-28 00:18 | 44.99063 | -63.70338 | 2997 ft | 138 kts | 162° |
| 2026-04-28 00:18 | 44.98280 | -63.69683 | 3014 ft | 132 kts | 132° |
| 2026-04-28 00:19 | 44.97732 | -63.68585 | 2984 ft | 138 kts | 120° |
| 2026-04-28 00:19 | 44.97201 | -63.67466 | 3016 ft | 141 kts | 123° |
| 2026-04-28 00:19 | 44.96631 | -63.66320 | 3021 ft | 141 kts | 123° |
| 2026-04-28 00:19 | 44.96054 | -63.65157 | 2881 ft | 148 kts | 123° |
| 2026-04-28 00:20 | 44.95439 | -63.63918 | 2623 ft | 159 kts | 125° |
| 2026-04-28 00:20 | 44.94829 | -63.62685 | 2417 ft | 148 kts | 123° |
| 2026-04-28 00:20 | 44.94246 | -63.61505 | 2247 ft | 146 kts | 125° |
| 2026-04-28 00:20 | 44.93660 | -63.60345 | 2004 ft | 144 kts | 125° |
| 2026-04-28 00:21 | 44.93092 | -63.59209 | 1802 ft | 140 kts | 125° |
| 2026-04-28 00:21 | 44.92537 | -63.58092 | 1608 ft | 138 kts | 125° |
| 2026-04-28 00:21 | 44.92028 | -63.57070 | 1415 ft | 113 kts | 125° |
| 2026-04-28 00:21 | 44.91623 | -63.56260 | 1191 ft | 94 kts | 126° |
| 2026-04-28 00:22 | 44.91277 | -63.55563 | 1131 ft | 87 kts | 127° |
| 2026-04-28 00:22 | 44.90913 | -63.54832 | 994 ft | 92 kts | 127° |
| 2026-04-28 00:22 | 44.90541 | -63.54089 | 867 ft | 92 kts | 127° |
| 2026-04-28 00:22 | 44.90174 | -63.53347 | 741 ft | 92 kts | 127° |
| 2026-04-28 00:23 | 44.89805 | -63.52606 | 646 ft | 94 kts | 128° |
| 2026-04-28 00:23 | 44.89551 | -63.52116 | 862 ft | 94 kts | 127° |
| 2026-04-28 00:23 | 44.89185 | -63.51373 | 1471 ft | 90 kts | 127° |
| 2026-04-28 00:23 | 44.88823 | -63.50675 | 2029 ft | 89 kts | 128° |
| 2026-04-28 00:24 | 44.88456 | -63.49935 | 2576 ft | 94 kts | 125° |
| 2026-04-28 00:24 | 44.88063 | -63.49166 | 3063 ft | 108 kts | 125° |
| 2026-04-28 00:24 | 44.87535 | -63.48208 | 3007 ft | 132 kts | 126° |
| 2026-04-28 00:24 | 44.86816 | -63.46759 | 3017 ft | 136 kts | 119° |
| 2026-04-28 00:25 | 44.86677 | -63.45917 | 3000 ft | 135 kts | 85° |
| 2026-04-28 00:25 | 44.87225 | -63.44870 | 3041 ft | 144 kts | 34° |
| 2026-04-28 00:25 | 44.88126 | -63.44142 | 3027 ft | 150 kts | 33° |
| 2026-04-28 00:25 | 44.89012 | -63.43391 | 2999 ft | 145 kts | 34° |
| 2026-04-28 00:26 | 44.89875 | -63.42667 | 3010 ft | 144 kts | 33° |
| 2026-04-28 00:26 | 44.90757 | -63.41932 | 2966 ft | 155 kts | 34° |
| 2026-04-28 00:26 | 44.91695 | -63.41241 | 2982 ft | 155 kts | 21° |
| 2026-04-28 00:26 | 44.92784 | -63.41281 | 2974 ft | 159 kts | 344° |
| 2026-04-28 00:27 | 44.93657 | -63.42159 | 3002 ft | 154 kts | 311° |
| 2026-04-28 00:27 | 44.94316 | -63.43375 | 3002 ft | 158 kts | 307° |
| 2026-04-28 00:27 | 44.94972 | -63.44619 | 2996 ft | 160 kts | 308° |
| 2026-04-28 00:27 | 44.95677 | -63.45891 | 2980 ft | 161 kts | 309° |
| 2026-04-28 00:28 | 44.96358 | -63.47124 | 2973 ft | 163 kts | 309° |
| 2026-04-28 00:28 | 44.97043 | -63.48367 | 2995 ft | 160 kts | 309° |
| 2026-04-28 00:28 | 44.97727 | -63.49611 | 3008 ft | 161 kts | 309° |
| 2026-04-28 00:28 | 44.98411 | -63.50850 | 2990 ft | 161 kts | 309° |
| 2026-04-28 00:29 | 44.99090 | -63.52086 | 3014 ft | 162 kts | 309° |
| 2026-04-28 00:29 | 44.99791 | -63.53361 | 2995 ft | 165 kts | 309° |
| 2026-04-28 00:29 | 45.00484 | -63.54619 | 2993 ft | 157 kts | 309° |
| 2026-04-28 00:29 | 45.01159 | -63.55841 | 3004 ft | 160 kts | 309° |
| 2026-04-28 00:30 | 45.01849 | -63.57111 | 2994 ft | 161 kts | 309° |
| 2026-04-28 00:30 | 45.02536 | -63.58375 | 2993 ft | 161 kts | 309° |
| 2026-04-28 00:30 | 45.03228 | -63.59612 | 2993 ft | 164 kts | 310° |
| 2026-04-28 00:30 | 45.03919 | -63.60875 | 2994 ft | 157 kts | 309° |
| 2026-04-28 00:31 | 45.04580 | -63.62092 | 2996 ft | 159 kts | 309° |
| 2026-04-28 00:31 | 45.05146 | -63.63432 | 3008 ft | 158 kts | 284° |
| 2026-04-28 00:31 | 45.05098 | -63.64994 | 3008 ft | 161 kts | 247° |
| 2026-04-28 00:31 | 45.04440 | -63.66219 | 2985 ft | 153 kts | 213° |
| 2026-04-28 00:32 | 45.03516 | -63.66977 | 2990 ft | 157 kts | 206° |
| 2026-04-28 00:32 | 45.02589 | -63.67767 | 2987 ft | 157 kts | 209° |
| 2026-04-28 00:32 | 45.01678 | -63.68576 | 3001 ft | 151 kts | 210° |
| 2026-04-28 00:32 | 45.00802 | -63.69421 | 2998 ft | 156 kts | 213° |
| 2026-04-28 00:33 | 44.99906 | -63.70338 | 2987 ft | 157 kts | 212° |
| 2026-04-28 00:33 | 44.98922 | -63.70564 | 2984 ft | 142 kts | 157° |
| 2026-04-28 00:33 | 44.98276 | -63.69613 | 3019 ft | 135 kts | 120° |
| 2026-04-28 00:33 | 44.97701 | -63.68474 | 2979 ft | 143 kts | 125° |
| 2026-04-28 00:34 | 44.97128 | -63.67331 | 2987 ft | 145 kts | 122° |
| 2026-04-28 00:34 | 44.96564 | -63.66184 | 2959 ft | 142 kts | 124° |
| 2026-04-28 00:34 | 44.95998 | -63.65053 | 2882 ft | 144 kts | 123° |
| 2026-04-28 00:34 | 44.95388 | -63.63823 | 2613 ft | 157 kts | 124° |
| 2026-04-28 00:35 | 44.94778 | -63.62588 | 2405 ft | 151 kts | 124° |
| 2026-04-28 00:35 | 44.94175 | -63.61388 | 2196 ft | 150 kts | 125° |
| 2026-04-28 00:35 | 44.93581 | -63.60195 | 1991 ft | 147 kts | 124° |
| 2026-04-28 00:35 | 44.93049 | -63.59122 | 1792 ft | 120 kts | 125° |
| 2026-04-28 00:36 | 44.92643 | -63.58303 | 1642 ft | 89 kts | 125° |
| 2026-04-28 00:36 | 44.92296 | -63.57605 | 1525 ft | 86 kts | 126° |
| 2026-04-28 00:36 | 44.91944 | -63.56904 | 1406 ft | 89 kts | 126° |
| 2026-04-28 00:36 | 44.91573 | -63.56160 | 1254 ft | 94 kts | 125° |
| 2026-04-28 00:37 | 44.91203 | -63.55408 | 1127 ft | 96 kts | 126° |
| 2026-04-28 00:37 | 44.90816 | -63.54639 | 987 ft | 95 kts | 127° |
| 2026-04-28 00:37 | 44.90436 | -63.53881 | 854 ft | 94 kts | 127° |
| 2026-04-28 00:37 | 44.90055 | -63.53124 | 715 ft | 95 kts | 127° |
| 2026-04-28 00:38 | 44.89679 | -63.52362 | 637 ft | 96 kts | 127° |
| 2026-04-28 00:38 | 44.89313 | -63.51604 | 1074 ft | 95 kts | 125° |
| 2026-04-28 00:38 | 44.88928 | -63.50866 | 1644 ft | 90 kts | 127° |
| 2026-04-28 00:38 | 44.88578 | -63.50155 | 2228 ft | 88 kts | 124° |
| 2026-04-28 00:39 | 44.88205 | -63.49430 | 2825 ft | 94 kts | 128° |
| 2026-04-28 00:39 | 44.87796 | -63.48711 | 3436 ft | 93 kts | 127° |
| 2026-04-28 00:39 | 44.87378 | -63.47996 | 3734 ft | 96 kts | 120° |
| 2026-04-28 00:39 | 44.87279 | -63.47088 | 4135 ft | 96 kts | 78° |
| 2026-04-28 00:40 | 44.87647 | -63.46299 | 4446 ft | 101 kts | 37° |
| 2026-04-28 00:40 | 44.88239 | -63.45777 | 4832 ft | 99 kts | 33° |
| 2026-04-28 00:40 | 44.88882 | -63.45176 | 5043 ft | 127 kts | 33° |
| 2026-04-28 00:40 | 44.89709 | -63.44461 | 5039 ft | 146 kts | 32° |
| 2026-04-28 00:41 | 44.90588 | -63.43711 | 5088 ft | 150 kts | 32° |
| 2026-04-28 00:41 | 44.91531 | -63.43000 | 5031 ft | 154 kts | 20° |
| 2026-04-28 00:41 | 44.92587 | -63.43050 | 5054 ft | 158 kts | 343° |
| 2026-04-28 00:41 | 44.93521 | -63.43912 | 5027 ft | 163 kts | 319° |
| 2026-04-28 00:42 | 44.94319 | -63.45068 | 5027 ft | 168 kts | 317° |
| 2026-04-28 00:42 | 44.95165 | -63.46221 | 5019 ft | 165 kts | 319° |
| 2026-04-28 00:42 | 44.95992 | -63.47302 | 5049 ft | 161 kts | 319° |
| 2026-04-28 00:42 | 44.96827 | -63.48391 | 5013 ft | 164 kts | 320° |
| 2026-04-28 00:43 | 44.97662 | -63.49496 | 5009 ft | 165 kts | 319° |
| 2026-04-28 00:43 | 44.98484 | -63.50600 | 5013 ft | 162 kts | 319° |
| 2026-04-28 00:43 | 44.99306 | -63.51688 | 5020 ft | 159 kts | 319° |
| 2026-04-28 00:43 | 45.00116 | -63.52756 | 5034 ft | 159 kts | 319° |
| 2026-04-28 00:44 | 45.00930 | -63.53837 | 5028 ft | 163 kts | 318° |
| 2026-04-28 00:44 | 45.01758 | -63.54937 | 5022 ft | 160 kts | 319° |
| 2026-04-28 00:44 | 45.02580 | -63.56029 | 5004 ft | 163 kts | 320° |
| 2026-04-28 00:44 | 45.03397 | -63.57107 | 5025 ft | 158 kts | 319° |
| 2026-04-28 00:45 | 45.04213 | -63.58192 | 5020 ft | 165 kts | 319° |
| 2026-04-28 00:45 | 45.05032 | -63.59287 | 5030 ft | 158 kts | 318° |
| 2026-04-28 00:45 | 45.05828 | -63.60339 | 5043 ft | 156 kts | 319° |
| 2026-04-28 00:45 | 45.06641 | -63.61422 | 5044 ft | 160 kts | 319° |
| 2026-04-28 00:46 | 45.07450 | -63.62500 | 5033 ft | 158 kts | 320° |
| 2026-04-28 00:46 | 45.08249 | -63.63569 | 5026 ft | 161 kts | 319° |
| 2026-04-28 00:46 | 45.09054 | -63.64624 | 5028 ft | 156 kts | 318° |
| 2026-04-28 00:46 | 45.09835 | -63.65672 | 5016 ft | 153 kts | 318° |
| 2026-04-28 00:47 | 45.10621 | -63.66722 | 5026 ft | 161 kts | 319° |
| 2026-04-28 00:47 | 45.11457 | -63.67822 | 5027 ft | 166 kts | 319° |
| 2026-04-28 00:47 | 45.12289 | -63.68935 | 5013 ft | 161 kts | 319° |
| 2026-04-28 00:47 | 45.13088 | -63.70010 | 5007 ft | 157 kts | 319° |
| 2026-04-28 00:48 | 45.13878 | -63.71063 | 5004 ft | 155 kts | 319° |
| 2026-04-28 00:48 | 45.14659 | -63.72104 | 5012 ft | 154 kts | 319° |
| 2026-04-28 00:48 | 45.15436 | -63.73142 | 5005 ft | 152 kts | 319° |
| 2026-04-28 00:48 | 45.16203 | -63.74168 | 5006 ft | 151 kts | 319° |
| 2026-04-28 00:49 | 45.16967 | -63.75187 | 5011 ft | 152 kts | 319° |
| 2026-04-28 00:49 | 45.17733 | -63.76210 | 5010 ft | 151 kts | 319° |
| 2026-04-28 00:49 | 45.18500 | -63.77237 | 5009 ft | 152 kts | 319° |
| 2026-04-28 00:49 | 45.19274 | -63.78276 | 5007 ft | 154 kts | 319° |
| 2026-04-28 00:50 | 45.20046 | -63.79307 | 4999 ft | 151 kts | 318° |
| 2026-04-28 00:50 | 45.20804 | -63.80326 | 4996 ft | 149 kts | 319° |
| 2026-04-28 00:50 | 45.21562 | -63.81335 | 5000 ft | 150 kts | 319° |
| 2026-04-28 00:50 | 45.22305 | -63.82333 | 4997 ft | 148 kts | 318° |
| 2026-04-28 00:51 | 45.23056 | -63.83347 | 5002 ft | 150 kts | 318° |
| 2026-04-28 00:51 | 45.23815 | -63.84368 | 5017 ft | 153 kts | 319° |
| 2026-04-28 00:51 | 45.24598 | -63.85409 | 5012 ft | 153 kts | 319° |
| 2026-04-28 00:51 | 45.25368 | -63.86442 | 5002 ft | 151 kts | 318° |
| 2026-04-28 00:52 | 45.26137 | -63.87475 | 5010 ft | 150 kts | 319° |
| 2026-04-28 00:52 | 45.26889 | -63.88485 | 4992 ft | 150 kts | 319° |
| 2026-04-28 00:52 | 45.27642 | -63.89501 | 4990 ft | 150 kts | 318° |
| 2026-04-28 00:52 | 45.28394 | -63.90513 | 4990 ft | 148 kts | 319° |
| 2026-04-28 00:53 | 45.29143 | -63.91519 | 4992 ft | 148 kts | 319° |
| 2026-04-28 00:53 | 45.29895 | -63.92528 | 4988 ft | 149 kts | 319° |
| 2026-04-28 00:53 | 45.30645 | -63.93537 | 4992 ft | 148 kts | 319° |
| 2026-04-28 00:53 | 45.31392 | -63.94545 | 4987 ft | 148 kts | 318° |
| 2026-04-28 00:54 | 45.32138 | -63.95550 | 4988 ft | 148 kts | 319° |
| 2026-04-28 00:54 | 45.32884 | -63.96555 | 4988 ft | 148 kts | 318° |
| 2026-04-28 00:54 | 45.33629 | -63.97559 | 4990 ft | 148 kts | 318° |
| 2026-04-28 00:54 | 45.34375 | -63.98565 | 4989 ft | 148 kts | 319° |
| 2026-04-28 00:55 | 45.35119 | -63.99569 | 4987 ft | 147 kts | 318° |
| 2026-04-28 00:55 | 45.35861 | -64.00570 | 4986 ft | 147 kts | 319° |
| 2026-04-28 00:55 | 45.36602 | -64.01571 | 4985 ft | 147 kts | 319° |
| 2026-04-28 00:55 | 45.37334 | -64.02560 | 4992 ft | 147 kts | 319° |
| 2026-04-28 00:56 | 45.38084 | -64.03573 | 4988 ft | 147 kts | 319° |
| 2026-04-28 00:56 | 45.38824 | -64.04575 | 4993 ft | 148 kts | 319° |
| 2026-04-28 00:56 | 45.39567 | -64.05576 | 4990 ft | 147 kts | 318° |
| 2026-04-28 00:56 | 45.40299 | -64.06570 | 4996 ft | 148 kts | 319° |
| 2026-04-28 00:57 | 45.41040 | -64.07575 | 4999 ft | 148 kts | 319° |
| 2026-04-28 00:57 | 45.41792 | -64.08589 | 4984 ft | 147 kts | 319° |
| 2026-04-28 00:57 | 45.42531 | -64.09591 | 4983 ft | 146 kts | 319° |
| 2026-04-28 00:57 | 45.43267 | -64.10587 | 4976 ft | 146 kts | 318° |
| 2026-04-28 00:58 | 45.44007 | -64.11594 | 4976 ft | 149 kts | 318° |
| 2026-04-28 00:58 | 45.44746 | -64.12592 | 4976 ft | 145 kts | 319° |
| 2026-04-28 00:58 | 45.45474 | -64.13578 | 4981 ft | 144 kts | 319° |
| 2026-04-28 00:58 | 45.46194 | -64.14563 | 4977 ft | 143 kts | 319° |
| 2026-04-28 00:59 | 45.46923 | -64.15547 | 4976 ft | 144 kts | 319° |
| 2026-04-28 00:59 | 45.47654 | -64.16535 | 4976 ft | 144 kts | 318° |
| 2026-04-28 00:59 | 45.48374 | -64.17519 | 4986 ft | 144 kts | 319° |
| 2026-04-28 00:59 | 45.49108 | -64.18517 | 4968 ft | 146 kts | 319° |
| 2026-04-28 01:00 | 45.49841 | -64.19505 | 4970 ft | 146 kts | 319° |
| 2026-04-28 01:00 | 45.50569 | -64.20503 | 4987 ft | 146 kts | 318° |
| 2026-04-28 01:00 | 45.51310 | -64.21510 | 4972 ft | 146 kts | 318° |
| 2026-04-28 01:00 | 45.52035 | -64.22500 | 4986 ft | 149 kts | 318° |
| 2026-04-28 01:01 | 45.52791 | -64.23524 | 4970 ft | 149 kts | 318° |
| 2026-04-28 01:01 | 45.53534 | -64.24536 | 4972 ft | 147 kts | 318° |
| 2026-04-28 01:01 | 45.54280 | -64.25544 | 4984 ft | 148 kts | 318° |
| 2026-04-28 01:01 | 45.55024 | -64.26571 | 4970 ft | 149 kts | 318° |
| 2026-04-28 01:02 | 45.55779 | -64.27606 | 4978 ft | 150 kts | 318° |
| 2026-04-28 01:02 | 45.56531 | -64.28620 | 4985 ft | 148 kts | 318° |
| 2026-04-28 01:02 | 45.57283 | -64.29648 | 4972 ft | 149 kts | 318° |
| 2026-04-28 01:02 | 45.58032 | -64.30671 | 4961 ft | 150 kts | 318° |
| 2026-04-28 01:03 | 45.58777 | -64.31691 | 4968 ft | 147 kts | 318° |
| 2026-04-28 01:03 | 45.59511 | -64.32694 | 4969 ft | 146 kts | 318° |
| 2026-04-28 01:03 | 45.60245 | -64.33696 | 4969 ft | 146 kts | 318° |
| 2026-04-28 01:03 | 45.60978 | -64.34696 | 4967 ft | 146 kts | 318° |
| 2026-04-28 01:04 | 45.61710 | -64.35697 | 4970 ft | 146 kts | 318° |
| 2026-04-28 01:04 | 45.62444 | -64.36701 | 4977 ft | 147 kts | 318° |
| 2026-04-28 01:04 | 45.63182 | -64.37713 | 4987 ft | 149 kts | 318° |
| 2026-04-28 01:04 | 45.63945 | -64.38758 | 4964 ft | 152 kts | 318° |
| 2026-04-28 01:05 | 45.64701 | -64.39795 | 4972 ft | 149 kts | 318° |
| 2026-04-28 01:05 | 45.65444 | -64.40814 | 4967 ft | 147 kts | 318° |
| 2026-04-28 01:05 | 45.66179 | -64.41818 | 4975 ft | 146 kts | 318° |
| 2026-04-28 01:05 | 45.66912 | -64.42824 | 4984 ft | 146 kts | 318° |
| 2026-04-28 01:06 | 45.67634 | -64.43818 | 4967 ft | 147 kts | 318° |
| 2026-04-28 01:06 | 45.68374 | -64.44830 | 4987 ft | 147 kts | 317° |
| 2026-04-28 01:06 | 45.69122 | -64.45860 | 4966 ft | 149 kts | 318° |
| 2026-04-28 01:06 | 45.69867 | -64.46879 | 4975 ft | 147 kts | 317° |
| 2026-04-28 01:07 | 45.70600 | -64.47887 | 4972 ft | 146 kts | 317° |
| 2026-04-28 01:07 | 45.71329 | -64.48890 | 4970 ft | 145 kts | 317° |
| 2026-04-28 01:07 | 45.72057 | -64.49890 | 4972 ft | 145 kts | 317° |
| 2026-04-28 01:07 | 45.72538 | -64.50553 | 4979 ft | 145 kts | 317° |
| 2026-04-28 01:08 | 45.73518 | -64.51908 | 4980 ft | 149 kts | 317° |
| 2026-04-28 01:08 | 45.74259 | -64.52922 | 4985 ft | 147 kts | 317° |
| 2026-04-28 01:08 | 45.74996 | -64.53936 | 4973 ft | 146 kts | 317° |
| 2026-04-28 01:08 | 45.75480 | -64.54605 | 4978 ft | 146 kts | 317° |
| 2026-04-28 01:09 | 45.76210 | -64.55611 | 4971 ft | 145 kts | 317° |
| 2026-04-28 01:09 | 45.76938 | -64.56613 | 4974 ft | 145 kts | 317° |
| 2026-04-28 01:09 | 45.77665 | -64.57615 | 4972 ft | 145 kts | 317° |
| 2026-04-28 01:09 | 45.78392 | -64.58620 | 4971 ft | 145 kts | 317° |
| 2026-04-28 01:10 | 45.79354 | -64.59949 | 4974 ft | 145 kts | 317° |
| 2026-04-28 01:10 | 45.80085 | -64.60956 | 4972 ft | 147 kts | 317° |
| 2026-04-28 01:10 | 45.80578 | -64.61643 | 4985 ft | 146 kts | 317° |
| 2026-04-28 01:10 | 45.81309 | -64.62648 | 4979 ft | 145 kts | 317° |
| 2026-04-28 01:11 | 45.82040 | -64.63658 | 4981 ft | 146 kts | 316° |
| 2026-04-28 01:11 | 45.82807 | -64.64714 | 4959 ft | 155 kts | 317° |
| 2026-04-28 01:11 | 45.83564 | -64.65771 | 5037 ft | 151 kts | 317° |
| 2026-04-28 01:11 | 45.84322 | -64.66820 | 4986 ft | 150 kts | 317° |
| 2026-04-28 01:12 | 45.85067 | -64.67850 | 5008 ft | 148 kts | 319° |
| 2026-04-28 01:12 | 45.85817 | -64.68882 | 4985 ft | 149 kts | 317° |
| 2026-04-28 01:12 | 45.86542 | -64.69896 | 4980 ft | 147 kts | 317° |
| 2026-04-28 01:12 | 45.87278 | -64.70911 | 5005 ft | 150 kts | 316° |
| 2026-04-28 01:13 | 45.88055 | -64.71989 | 4821 ft | 156 kts | 316° |
| 2026-04-28 01:13 | 45.89656 | -64.74212 | 4564 ft | 162 kts | 316° |
| 2026-04-28 01:13 | 45.90465 | -64.75340 | 4444 ft | 162 kts | 316° |
| 2026-04-28 01:14 | 45.91285 | -64.76469 | 4314 ft | 162 kts | 316° |
| 2026-04-28 01:14 | 45.92080 | -64.77595 | 4191 ft | 160 kts | 314° |
| 2026-04-28 01:14 | 45.92812 | -64.78784 | 4066 ft | 159 kts | 312° |
| 2026-04-28 01:14 | 45.93583 | -64.79969 | 3930 ft | 166 kts | 314° |
| 2026-04-28 01:15 | 45.94366 | -64.81160 | 3810 ft | 163 kts | 313° |
| 2026-04-28 01:15 | 45.95133 | -64.82370 | 3684 ft | 166 kts | 312° |
| 2026-04-28 01:15 | 45.95906 | -64.83585 | 3553 ft | 164 kts | 312° |
| 2026-04-28 01:15 | 45.96687 | -64.84775 | 3421 ft | 163 kts | 317° |
| 2026-04-28 01:16 | 45.97691 | -64.85442 | 3273 ft | 165 kts | 351° |
| 2026-04-28 01:16 | 45.98803 | -64.85156 | 3146 ft | 164 kts | 27° |
| 2026-04-28 01:16 | 45.99659 | -64.84081 | 3048 ft | 164 kts | 48° |
| 2026-04-28 01:16 | 46.00443 | -64.82860 | 2981 ft | 165 kts | 46° |
| 2026-04-28 01:17 | 46.01273 | -64.81698 | 2804 ft | 169 kts | 44° |
| 2026-04-28 01:17 | 46.02137 | -64.80547 | 2575 ft | 168 kts | 44° |
| 2026-04-28 01:17 | 46.02995 | -64.79430 | 2377 ft | 168 kts | 45° |
| 2026-04-28 01:17 | 46.03855 | -64.78297 | 2142 ft | 168 kts | 44° |
| 2026-04-28 01:18 | 46.04740 | -64.77136 | 1848 ft | 171 kts | 44° |
| 2026-04-28 01:18 | 46.05595 | -64.76022 | 1637 ft | 160 kts | 44° |
| 2026-04-28 01:18 | 46.06402 | -64.74985 | 1415 ft | 153 kts | 44° |
| 2026-04-28 01:18 | 46.07138 | -64.73999 | 1216 ft | 138 kts | 46° |
| 2026-04-28 01:19 | 46.07793 | -64.73132 | 1008 ft | 113 kts | 44° |
| 2026-04-28 01:19 | 46.08325 | -64.72437 | 854 ft | 98 kts | 45° |
| 2026-04-28 01:19 | 46.08817 | -64.71786 | 742 ft | 97 kts | 44° |
| 2026-04-28 01:19 | 46.09315 | -64.71135 | 617 ft | 97 kts | 46° |
| 2026-04-28 01:20 | 46.09817 | -64.70467 | 475 ft | 97 kts | 44° |
| 2026-04-28 01:20 | 46.10308 | -64.69815 | 353 ft | 94 kts | 44° |
| 2026-04-28 01:20 | 46.10782 | -64.69190 | 231 ft | 85 kts | 40° |
| 2026-04-28 01:20 | 46.11122 | -64.68746 | 222 ft | 41 kts | 41° |
| 2026-04-28 01:21 | 46.11265 | -64.68560 | 222 ft | 17 kts | 46° |
| 2026-04-28 01:21 | 46.11207 | -64.68488 | 221 ft | 16 kts | 179° |
| 2026-04-28 01:21 | 46.11080 | -64.68481 | 221 ft | 23 kts | 177° |
| 2026-04-28 01:21 | 46.10908 | -64.68470 | 224 ft | 25 kts | 176° |
| 2026-04-28 01:22 | 46.10739 | -64.68456 | 225 ft | 24 kts | 176° |
| 2026-04-28 01:22 | 46.10604 | -64.68339 | 226 ft | 22 kts | 134° |
| 2026-04-28 01:22 | 46.10581 | -64.68155 | 225 ft | 20 kts | 84° |
| 2026-04-28 01:22 | 46.10587 | -64.67943 | 225 ft | 22 kts | 88° |
| 2026-04-28 01:23 | 46.10583 | -64.67716 | 225 ft | 23 kts | 96° |
| 2026-04-28 01:23 | 46.10584 | -64.67489 | 224 ft | 22 kts | 87° |
| 2026-04-28 01:23 | 46.10577 | -64.67325 | 224 ft | 12 kts | 152° |
| 2026-04-28 01:23 | 46.10553 | -64.67380 | 224 ft | 6 kts | 306° |
| 2026-04-28 01:24 | 46.10558 | -64.67388 | 224 ft | 0 kts | 309° |